首页
METAR-TAF:

METAR-TAF

机场 :

卡普里岛, 意大利

纬度: 40-33N, 经度: 014-12E, 海拔: 160米

当前天气观测

该预报发布于25分钟前的11:55 UTC
风速2节,风向
温度 12°C
湿度 50%
气压 1010 hPa
能见度10公里或以上
1500米以下无云,无积雨云

METAR: LIQC 111155Z 09002KT CAVOK 12/02 Q1010 RMK SKC QUK 2 QUL 1 NE VIS MAR 25 KM VIS MIN 9999

时间: 13:20 (12:20 UTC)


TAF: 丢失

超过4000个机场的气象观测和天气预报(METAR&TAF报告)。

可查询的气象台以黄色和红色小点在地图上表示。

将鼠标移到小点上方,可查看气象台名称。

然后点击查看天气观测和预报。

如需切换地图:点击带黑十字的绿色按钮放大地图;点击带横线的绿色按钮缩小地图;或者点击绿色箭头查看邻近地区的地图。


METAR-TAF: